Time;durP1;ratioP1;P1;durP2;ratioP2;P2;SDS_P1;SDS_P2;PMS_P1;PMS_P2;Temp;Humidity;BMP_temperature;BMP_pressure;BME280_temperature;BME280_humidity;BME280_pressure;Samples;Min_cycle;Max_cycle;Signal;HPM_P1;HPM_P2
2023/04/08 00:00:48;;;;;;;30.60;12.40;;;4.80;99.90;;;;;;6178638;23;20030;-80
2023/04/08 00:03:15;;;;;;;36.38;14.43;;;4.80;99.90;;;;;;6177211;23;20406;-80
2023/04/08 00:05:43;;;;;;;31.70;12.90;;;4.80;99.90;;;;;;6202004;23;20062;-80
2023/04/08 00:08:10;;;;;;;29.85;11.20;;;4.90;99.90;;;;;;6176908;23;20032;-80
2023/04/08 00:10:37;;;;;;;31.15;11.90;;;4.80;99.90;;;;;;6175689;23;20454;-80
2023/04/08 00:13:04;;;;;;;29.92;12.13;;;4.90;99.90;;;;;;6175324;23;20023;-80
2023/04/08 00:15:31;;;;;;;31.98;13.20;;;4.80;99.90;;;;;;6200834;23;20229;-80
2023/04/08 00:17:58;;;;;;;31.98;13.43;;;4.80;99.90;;;;;;6227946;23;20020;-80
2023/04/08 00:20:25;;;;;;;31.55;13.05;;;4.80;99.90;;;;;;6177654;23;20020;-80
2023/04/08 00:22:53;;;;;;;34.05;13.68;;;4.80;99.90;;;;;;6180625;23;20016;-80
2023/04/08 00:25:20;;;;;;;32.22;13.45;;;4.80;99.90;;;;;;6177824;23;20052;-80
2023/04/08 00:27:50;;;;;;;30.45;12.90;;;4.80;99.90;;;;;;6177766;23;20086;-80
2023/04/08 00:30:18;;;;;;;31.98;12.82;;;4.80;99.90;;;;;;6201261;23;20027;-80
2023/04/08 00:32:45;;;;;;;31.90;12.82;;;4.80;99.90;;;;;;6201243;23;20074;-80
2023/04/08 00:35:13;;;;;;;33.53;12.90;;;4.80;99.90;;;;;;6177951;23;20354;-80
2023/04/08 00:37:40;;;;;;;32.08;13.15;;;4.80;99.90;;;;;;6176609;23;20098;-80
2023/04/08 00:40:07;;;;;;;29.98;13.23;;;4.70;99.90;;;;;;6203334;23;20020;-81
2023/04/08 00:42:35;;;;;;;31.73;13.13;;;4.70;99.90;;;;;;6175821;23;20472;-80
2023/04/08 00:45:02;;;;;;;29.02;12.18;;;4.70;99.90;;;;;;6176967;23;20370;-80
2023/04/08 00:47:30;;;;;;;27.73;11.48;;;4.70;99.90;;;;;;6202860;23;20024;-80
2023/04/08 00:49:57;;;;;;;31.67;13.07;;;4.70;99.90;;;;;;6201114;23;20020;-80
2023/04/08 00:52:25;;;;;;;34.00;14.05;;;4.80;99.90;;;;;;6175363;23;20024;-80
2023/04/08 00:54:52;;;;;;;32.75;13.43;;;4.70;99.90;;;;;;6178878;23;20027;-80
2023/04/08 00:57:19;;;;;;;33.85;14.82;;;4.70;99.90;;;;;;6201048;23;20020;-80
2023/04/08 00:59:46;;;;;;;31.75;13.35;;;4.80;99.90;;;;;;6176086;23;20031;-80
2023/04/08 01:02:33;;;;;;;31.45;13.38;;;4.70;99.90;;;;;;6176087;23;20317;-80
2023/04/08 01:05:08;;;;;;;31.88;12.52;;;4.70;99.90;;;;;;6205618;23;20082;-80
2023/04/08 01:07:45;;;;;;;33.33;12.85;;;4.80;99.90;;;;;;6177544;23;20031;-80
2023/04/08 01:10:21;;;;;;;26.38;12.77;;;4.70;99.90;;;;;;6177880;23;20047;-80
2023/04/08 01:12:54;;;;;;;30.58;13.02;;;4.80;99.90;;;;;;6176994;23;20562;-80
2023/04/08 01:15:25;;;;;;;34.30;13.38;;;4.80;99.90;;;;;;6177557;23;20103;-80
2023/04/08 01:17:54;;;;;;;31.25;12.32;;;4.70;99.90;;;;;;6179525;23;20031;-80
2023/04/08 01:20:24;;;;;;;32.08;12.65;;;4.70;99.90;;;;;;6179679;23;20451;-80
2023/04/08 01:23:00;;;;;;;32.70;13.30;;;4.70;99.90;;;;;;6176098;23;20456;-80
2023/04/08 01:25:36;;;;;;;28.73;12.57;;;4.70;99.90;;;;;;6179053;23;20400;-80
2023/04/08 01:28:06;;;;;;;27.55;11.80;;;4.70;99.90;;;;;;6204365;23;20127;-80
2023/04/08 01:30:36;;;;;;;30.35;12.63;;;4.70;99.90;;;;;;6178627;23;20709;-80
2023/04/08 01:33:05;;;;;;;28.73;11.57;;;4.70;99.90;;;;;;6205203;23;20034;-80
2023/04/08 01:35:32;;;;;;;25.95;10.85;;;4.80;99.90;;;;;;6203873;23;20036;-80
2023/04/08 01:38:01;;;;;;;26.45;11.45;;;4.80;99.90;;;;;;6208499;23;20030;-80
2023/04/08 01:40:29;;;;;;;27.45;11.57;;;4.80;99.90;;;;;;6180216;23;20437;-80
2023/04/08 01:42:59;;;;;;;31.20;12.50;;;4.70;99.90;;;;;;6202288;23;20111;-80
2023/04/08 01:45:27;;;;;;;30.73;11.48;;;4.80;99.90;;;;;;6180102;23;20030;-81
2023/04/08 01:47:58;;;;;;;31.42;12.90;;;4.70;99.90;;;;;;6202687;23;20031;-81
2023/04/08 01:50:27;;;;;;;31.55;11.75;;;4.80;99.90;;;;;;6178354;23;20031;-80
2023/04/08 01:52:56;;;;;;;31.27;12.75;;;4.70;99.90;;;;;;6177927;23;20343;-80
2023/04/08 01:55:24;;;;;;;30.65;12.07;;;4.60;99.90;;;;;;6204867;23;20030;-80
2023/04/08 01:57:52;;;;;;;29.17;12.18;;;4.70;99.90;;;;;;6179390;23;20039;-81
2023/04/08 02:00:25;;;;;;;27.45;11.98;;;4.80;99.90;;;;;;6180495;23;20028;-80
2023/04/08 02:02:53;;;;;;;;;;;4.70;99.90;;;;;;6205930;23;20024;-80
2023/04/08 02:05:20;;;;;;;29.67;12.52;;;4.70;99.90;;;;;;6180435;23;20335;-81
2023/04/08 02:07:48;;;;;;;32.63;13.50;;;4.60;99.90;;;;;;6178075;23;20043;-80
2023/04/08 02:10:15;;;;;;;34.50;13.82;;;4.60;99.90;;;;;;6178573;23;20746;-80
2023/04/08 02:12:43;;;;;;;31.88;12.77;;;4.60;99.90;;;;;;6204799;23;20024;-81
2023/04/08 02:15:12;;;;;;;33.53;14.43;;;4.60;99.90;;;;;;6204752;23;20054;-80
2023/04/08 02:17:46;;;;;;;31.70;13.00;;;4.60;99.90;;;;;;6180221;23;20027;-80
2023/04/08 02:20:33;;;;;;;35.45;13.65;;;4.70;99.90;;;;;;6182126;23;20043;-80
2023/04/08 02:23:07;;;;;;;35.03;13.63;;;4.60;99.90;;;;;;6179369;23;20024;-81
2023/04/08 02:25:37;;;;;;;30.73;12.82;;;4.50;99.90;;;;;;6177827;23;20054;-81
2023/04/08 02:28:09;;;;;;;34.33;13.40;;;4.50;99.90;;;;;;6207462;23;20024;-80
2023/04/08 02:30:46;;;;;;;35.95;14.15;;;4.50;99.90;;;;;;6179351;23;20028;-80
2023/04/08 02:33:14;;;;;;;33.65;14.45;;;4.60;99.90;;;;;;6178598;23;20658;-80
2023/04/08 02:35:44;;;;;;;34.08;14.70;;;4.50;99.90;;;;;;6177372;23;20059;-81
2023/04/08 02:38:11;;;;;;;35.38;13.88;;;4.50;99.90;;;;;;6177898;23;20024;-80
2023/04/08 02:40:38;;;;;;;33.58;12.65;;;4.50;99.90;;;;;;6179118;23;20031;-80
2023/04/08 02:43:06;;;;;;;32.85;13.77;;;4.50;99.90;;;;;;6204243;23;20047;-80
2023/04/08 02:45:41;;;;;;;32.70;13.60;;;4.60;99.90;;;;;;6177427;23;20024;-80
2023/04/08 02:48:09;;;;;;;29.73;12.30;;;4.50;99.90;;;;;;6203213;23;20082;-80
2023/04/08 02:50:36;;;;;;;34.67;12.95;;;4.50;99.90;;;;;;6177258;23;20114;-80
2023/04/08 02:53:03;;;;;;;35.75;14.20;;;4.50;99.90;;;;;;6181891;23;20039;-80
2023/04/08 02:55:32;;;;;;;37.92;14.05;;;4.60;99.90;;;;;;6183773;23;20604;-80
2023/04/08 02:57:59;;;;;;;37.10;13.43;;;4.60;99.90;;;;;;6178221;23;20020;-80
2023/04/08 03:00:26;;;;;;;37.45;13.93;;;4.50;99.90;;;;;;6177610;23;20027;-80
2023/04/08 03:02:54;;;;;;;34.67;15.18;;;4.50;99.90;;;;;;6177682;23;20021;-81
2023/04/08 03:05:21;;;;;;;38.22;14.52;;;4.60;99.90;;;;;;6207185;23;20027;-80
2023/04/08 03:07:48;;;;;;;30.20;13.20;;;4.60;99.90;;;;;;6178079;23;20035;-80
2023/04/08 03:10:15;;;;;;;33.17;13.52;;;4.50;99.90;;;;;;6178910;23;20032;-81
2023/04/08 03:12:42;;;;;;;38.85;13.98;;;4.50;99.90;;;;;;6178337;23;20031;-80
2023/04/08 03:15:10;;;;;;;32.38;13.30;;;4.50;99.90;;;;;;6178213;23;20189;-81
2023/04/08 03:17:37;;;;;;;32.88;13.88;;;4.50;99.90;;;;;;6177205;23;20020;-80
2023/04/08 03:20:04;;;;;;;36.85;14.98;;;4.50;99.90;;;;;;6202272;23;20491;-81
2023/04/08 03:22:32;;;;;;;32.53;14.65;;;4.50;99.90;;;;;;6181661;23;20083;-80
2023/04/08 03:24:59;;;;;;;37.22;15.02;;;4.50;99.90;;;;;;6177076;23;20023;-80
2023/04/08 03:27:27;;;;;;;37.47;14.23;;;4.50;99.90;;;;;;6149596;23;20020;-80
2023/04/08 03:29:54;;;;;;;37.15;13.63;;;4.50;99.90;;;;;;6177035;23;20020;-80
2023/04/08 03:32:21;;;;;;;38.58;14.80;;;4.50;99.90;;;;;;6176848;23;20101;-80
2023/04/08 03:34:50;;;;;;;35.80;14.32;;;4.50;99.90;;;;;;6179115;23;20427;-80
2023/04/08 03:37:17;;;;;;;35.28;14.02;;;4.50;99.90;;;;;;6179032;23;20058;-80
2023/04/08 03:39:45;;;;;;;31.95;13.07;;;4.50;99.90;;;;;;6185354;23;20024;-80
2023/04/08 03:42:12;;;;;;;33.47;13.18;;;4.40;99.90;;;;;;6177761;23;20031;-80
2023/04/08 03:44:39;;;;;;;34.72;12.77;;;4.50;99.90;;;;;;6180049;23;20671;-80
2023/04/08 03:47:06;;;;;;;39.47;15.00;;;4.50;99.90;;;;;;6176817;23;20448;-81
2023/04/08 03:49:33;;;;;;;32.75;12.63;;;4.50;99.90;;;;;;6177728;23;20225;-80
2023/04/08 03:52:00;;;;;;;33.30;12.32;;;4.50;99.90;;;;;;6176477;23;20039;-81
2023/04/08 03:54:27;;;;;;;36.05;13.73;;;4.40;99.90;;;;;;6201969;23;20495;-82
2023/04/08 03:56:55;;;;;;;32.38;12.93;;;4.50;99.90;;;;;;6177891;23;20535;-82
2023/04/08 03:59:22;;;;;;;33.17;12.48;;;4.50;99.90;;;;;;6176368;23;20016;-82
2023/04/08 04:01:50;;;;;;;36.55;12.75;;;4.50;99.90;;;;;;6178311;23;20027;-82
2023/04/08 04:04:17;;;;;;;34.53;13.02;;;4.50;99.90;;;;;;6174199;23;20353;-81
2023/04/08 04:06:45;;;;;;;32.03;12.63;;;4.50;99.90;;;;;;6175433;23;20481;-82
2023/04/08 04:09:14;;;;;;;36.35;14.35;;;4.50;99.90;;;;;;6177411;23;20024;-81
2023/04/08 04:11:41;;;;;;;36.67;14.68;;;4.50;99.90;;;;;;6181002;23;20054;-82
2023/04/08 04:14:08;;;;;;;32.00;13.35;;;4.50;99.90;;;;;;6177725;23;20028;-82
2023/04/08 04:16:35;;;;;;;34.30;14.27;;;4.50;99.90;;;;;;6207852;23;20403;-81
2023/04/08 04:19:02;;;;;;;35.45;13.95;;;4.50;99.90;;;;;;6178183;23;20065;-82
2023/04/08 04:21:29;;;;;;;35.17;12.82;;;4.50;99.90;;;;;;6205505;23;20012;-79
2023/04/08 04:23:56;;;;;;;30.85;12.65;;;4.50;99.90;;;;;;6177018;23;20020;-80
2023/04/08 04:26:23;;;;;;;35.28;13.55;;;4.50;99.90;;;;;;6181696;23;20027;-80
2023/04/08 04:28:50;;;;;;;30.30;12.43;;;4.50;99.90;;;;;;6179257;23;20397;-82
2023/04/08 04:31:22;;;;;;;29.02;11.25;;;4.50;99.90;;;;;;6176902;23;20024;-79
2023/04/08 04:33:49;;;;;;;29.88;12.00;;;4.50;99.90;;;;;;6152492;23;20507;-80
2023/04/08 04:36:17;;;;;;;30.58;12.50;;;4.50;99.90;;;;;;6178053;23;20028;-80
2023/04/08 04:38:44;;;;;;;28.52;11.35;;;4.50;99.90;;;;;;6200053;23;20020;-80
2023/04/08 04:41:15;;;;;;;31.17;11.18;;;4.60;99.90;;;;;;6176010;23;20561;-80
2023/04/08 04:43:42;;;;;;;28.95;11.10;;;4.60;99.90;;;;;;6178644;23;20020;-80
2023/04/08 04:46:09;;;;;;;26.38;10.93;;;4.50;99.90;;;;;;6202334;23;20020;-80
2023/04/08 04:48:37;;;;;;;30.83;11.45;;;4.50;99.90;;;;;;6178143;23;20032;-80
2023/04/08 04:51:04;;;;;;;28.17;9.98;;;4.60;99.90;;;;;;6176617;23;20130;-80
2023/04/08 04:53:31;;;;;;;22.52;9.85;;;4.50;99.90;;;;;;6200871;23;20415;-80
2023/04/08 04:56:00;;;;;;;20.52;8.27;;;4.50;99.90;;;;;;6202724;23;20145;-80
2023/04/08 04:58:29;;;;;;;24.83;9.77;;;4.50;99.90;;;;;;6177497;23;20043;-80
2023/04/08 05:00:57;;;;;;;29.58;11.30;;;4.50;99.90;;;;;;6177257;23;20431;-80
2023/04/08 05:03:24;;;;;;;26.00;10.50;;;4.50;99.90;;;;;;6177510;23;20031;-79
2023/04/08 05:05:52;;;;;;;21.75;9.27;;;4.50;99.90;;;;;;6187963;23;20024;-80
2023/04/08 05:08:20;;;;;;;21.92;9.13;;;4.50;99.90;;;;;;6181838;23;20106;-81
2023/04/08 05:10:49;;;;;;;23.77;9.52;;;4.50;99.90;;;;;;6180026;23;20110;-80
2023/04/08 05:13:17;;;;;;;24.40;10.32;;;4.50;99.90;;;;;;6206475;23;20324;-80
2023/04/08 05:15:44;;;;;;;21.88;8.65;;;4.50;99.90;;;;;;6182756;23;20052;-80
2023/04/08 05:18:12;;;;;;;24.92;10.25;;;4.50;99.90;;;;;;6204543;23;20511;-81
2023/04/08 05:20:39;;;;;;;22.70;9.13;;;4.50;99.90;;;;;;6178620;23;20646;-80
2023/04/08 05:23:07;;;;;;;21.73;9.32;;;4.50;99.90;;;;;;6204314;23;20012;-80
2023/04/08 05:25:35;;;;;;;20.10;8.95;;;4.50;99.90;;;;;;6179544;23;20020;-80
2023/04/08 05:28:02;;;;;;;21.75;9.52;;;4.60;99.90;;;;;;6184476;23;20111;-81
2023/04/08 05:30:29;;;;;;;18.65;8.35;;;4.60;99.90;;;;;;6204900;23;20798;-80
2023/04/08 05:32:57;;;;;;;19.88;9.18;;;4.50;99.90;;;;;;6203121;23;20024;-80
2023/04/08 05:35:27;;;;;;;22.05;8.25;;;4.60;99.90;;;;;;6200749;23;20463;-80
2023/04/08 05:37:54;;;;;;;18.35;8.48;;;4.50;99.90;;;;;;6229445;23;20455;-80
2023/04/08 05:40:21;;;;;;;20.50;9.73;;;4.50;99.90;;;;;;6179189;23;20020;-81
2023/04/08 05:42:48;;;;;;;21.48;7.78;;;4.50;99.90;;;;;;6201056;23;20024;-80
2023/04/08 05:45:16;;;;;;;20.83;8.60;;;4.50;99.90;;;;;;6183736;23;20016;-80
2023/04/08 05:47:43;;;;;;;21.05;8.98;;;4.50;99.90;;;;;;6202049;23;20024;-80
2023/04/08 05:50:10;;;;;;;19.85;9.15;;;4.50;99.90;;;;;;6208568;23;20036;-80
2023/04/08 05:52:44;;;;;;;19.95;7.93;;;4.60;99.90;;;;;;6203591;23;20028;-80
2023/04/08 05:55:12;;;;;;;19.42;7.93;;;4.60;99.90;;;;;;6157692;23;20031;-79
2023/04/08 05:57:40;;;;;;;18.00;7.60;;;4.50;99.90;;;;;;6205761;23;20034;-80
2023/04/08 06:00:09;;;;;;;18.23;7.97;;;4.50;99.90;;;;;;6202068;23;20317;-80
2023/04/08 06:02:37;;;;;;;14.50;7.38;;;4.40;99.90;;;;;;6179973;23;20130;-80
2023/04/08 06:05:05;;;;;;;16.27;7.32;;;4.50;99.90;;;;;;6204423;23;20020;-80
2023/04/08 06:07:33;;;;;;;18.25;7.53;;;4.50;99.90;;;;;;6208313;23;20020;-80
2023/04/08 06:10:00;;;;;;;14.98;7.20;;;4.50;99.90;;;;;;6183079;23;20024;-80
2023/04/08 06:12:27;;;;;;;14.02;5.40;;;4.50;99.90;;;;;;6185177;23;20414;-80
2023/04/08 06:14:55;;;;;;;12.20;5.50;;;4.50;99.90;;;;;;6181211;23;20024;-80
2023/04/08 06:17:22;;;;;;;13.43;5.80;;;4.50;99.90;;;;;;6179240;23;20554;-80
2023/04/08 06:19:49;;;;;;;13.60;6.93;;;4.50;99.90;;;;;;6204295;23;20376;-80
2023/04/08 06:22:16;;;;;;;13.18;6.45;;;4.50;99.90;;;;;;6178818;23;20024;-80
2023/04/08 06:24:45;;;;;;;12.52;5.40;;;4.60;99.90;;;;;;6181282;23;20499;-81
2023/04/08 06:27:13;;;;;;;9.18;3.75;;;4.60;99.90;;;;;;6212477;23;20024;-81
2023/04/08 06:29:40;;;;;;;14.05;6.03;;;4.60;99.90;;;;;;6205456;23;20020;-80
2023/04/08 06:32:09;;;;;;;11.90;5.03;;;4.50;99.90;;;;;;6182898;23;20347;-81
2023/04/08 06:34:37;;;;;;;10.38;5.38;;;4.60;99.90;;;;;;6198916;23;20064;-81
2023/04/08 06:37:05;;;;;;;13.25;4.72;;;4.60;99.90;;;;;;6171147;23;20131;-80
2023/04/08 06:39:32;;;;;;;11.50;4.78;;;4.70;99.90;;;;;;6170552;23;20024;-80
2023/04/08 06:42:00;;;;;;;13.63;5.90;;;4.70;99.90;;;;;;6173979;23;20492;-80
2023/04/08 06:44:46;;;;;;;14.73;6.40;;;4.60;99.90;;;;;;6173798;23;20064;-81
2023/04/08 06:47:13;;;;;;;12.57;5.28;;;4.60;99.90;;;;;;6171470;23;20071;-80
2023/04/08 06:49:40;;;;;;;12.07;5.63;;;4.70;99.90;;;;;;6174071;23;20028;-80
2023/04/08 06:52:07;;;;;;;12.63;5.40;;;4.70;99.90;;;;;;6176335;23;20486;-80
2023/04/08 06:54:35;;;;;;;12.77;6.03;;;4.70;99.90;;;;;;6172068;23;20516;-80
2023/04/08 06:57:03;;;;;;;14.30;5.88;;;4.70;99.90;;;;;;6196104;23;20028;-80
2023/04/08 06:59:30;;;;;;;12.90;5.35;;;4.70;99.90;;;;;;6172203;23;20530;-80
2023/04/08 07:01:57;;;;;;;9.40;3.83;;;4.70;99.90;;;;;;6174906;23;20107;-81
2023/04/08 07:04:25;;;;;;;11.18;4.45;;;4.70;99.90;;;;;;6173011;23;20120;-80
2023/04/08 07:06:52;;;;;;;10.43;5.00;;;4.70;99.90;;;;;;6196890;23;20352;-80
2023/04/08 07:09:19;;;;;;;7.68;3.50;;;4.70;99.90;;;;;;6173140;23;20103;-81
2023/04/08 07:11:47;;;;;;;10.02;4.40;;;4.70;99.90;;;;;;6171586;23;20366;-80
2023/04/08 07:14:14;;;;;;;10.98;5.13;;;4.60;99.90;;;;;;6171036;23;20032;-80
2023/04/08 07:16:41;;;;;;;9.88;4.55;;;4.70;99.90;;;;;;6170783;23;20129;-80
2023/04/08 07:19:09;;;;;;;11.00;5.43;;;4.80;99.90;;;;;;6192573;23;20423;-80
2023/04/08 07:21:36;;;;;;;9.75;4.45;;;4.80;99.90;;;;;;6171679;23;20021;-82
2023/04/08 07:24:04;;;;;;;13.45;5.90;;;4.60;99.90;;;;;;6193682;23;20025;-81
2023/04/08 07:26:31;;;;;;;9.95;4.65;;;4.60;99.90;;;;;;6194665;23;20316;-80
2023/04/08 07:28:58;;;;;;;11.40;5.15;;;4.70;99.90;;;;;;6169028;23;20028;-81
2023/04/08 07:31:26;;;;;;;12.88;5.68;;;4.60;99.90;;;;;;6168078;23;20742;-81
2023/04/08 07:33:53;;;;;;;11.70;5.50;;;4.60;99.90;;;;;;6169308;23;20373;-80
2023/04/08 07:36:20;;;;;;;13.65;5.35;;;4.60;99.90;;;;;;6176842;23;20047;-82
2023/04/08 07:38:47;;;;;;;13.23;5.22;;;4.70;99.90;;;;;;6199209;23;20047;-82
2023/04/08 07:41:15;;;;;;;11.13;4.70;;;4.60;99.90;;;;;;6177958;23;20426;-81
2023/04/08 07:43:42;;;;;;;10.23;4.55;;;4.70;99.90;;;;;;6173629;23;20020;-81
2023/04/08 07:46:09;;;;;;;11.05;4.65;;;4.70;99.90;;;;;;6174265;23;20424;-82
2023/04/08 07:48:37;;;;;;;12.70;5.53;;;4.80;99.90;;;;;;6174691;23;20513;-82
2023/04/08 07:51:06;;;;;;;14.05;6.53;;;4.80;99.90;;;;;;6177498;23;20026;-81
2023/04/08 07:53:36;;;;;;;15.18;5.78;;;4.80;99.90;;;;;;6177279;23;20065;-80
2023/04/08 07:56:11;;;;;;;13.43;5.25;;;4.80;99.90;;;;;;6175928;23;20765;-80
2023/04/08 07:58:39;;;;;;;11.50;5.63;;;4.90;99.90;;;;;;6199841;23;20495;-80
2023/04/08 08:01:21;;;;;;;15.40;6.30;;;5.00;99.90;;;;;;6174020;23;20197;-80
2023/04/08 08:03:49;;;;;;;14.80;6.07;;;5.00;99.90;;;;;;6173559;23;20020;-79
2023/04/08 08:06:18;;;;;;;15.73;7.35;;;4.90;99.90;;;;;;6204896;23;20020;-80
2023/04/08 08:08:45;;;;;;;14.45;6.45;;;5.00;99.90;;;;;;6202762;23;20028;-80
2023/04/08 08:11:12;;;;;;;16.75;7.10;;;5.00;99.90;;;;;;6203072;23;20016;-80
2023/04/08 08:13:40;;;;;;;13.40;6.82;;;5.00;99.90;;;;;;6180487;23;20024;-80
2023/04/08 08:16:10;;;;;;;19.35;8.82;;;5.00;99.90;;;;;;6186407;23;20099;-80
2023/04/08 08:18:39;;;;;;;30.90;17.65;;;5.00;99.90;;;;;;6179484;23;20024;-80
2023/04/08 08:21:07;;;;;;;23.48;12.57;;;5.10;99.90;;;;;;6181366;23;20402;-80
2023/04/08 08:23:34;;;;;;;21.98;11.70;;;5.10;99.90;;;;;;6178602;23;20123;-80
2023/04/08 08:26:05;;;;;;;23.45;12.05;;;5.20;99.90;;;;;;6177176;23;20016;-80
2023/04/08 08:28:32;;;;;;;26.10;13.80;;;5.30;99.90;;;;;;6179420;23;20024;-80
2023/04/08 08:30:59;;;;;;;21.17;11.93;;;5.40;99.90;;;;;;6208612;23;20024;-81
2023/04/08 08:33:27;;;;;;;23.08;10.98;;;5.40;99.90;;;;;;6179121;23;20028;-80
2023/04/08 08:35:54;;;;;;;22.85;10.65;;;5.40;99.90;;;;;;6177349;23;20037;-80
2023/04/08 08:38:22;;;;;;;20.63;8.02;;;5.30;99.90;;;;;;6175029;23;20021;-81
2023/04/08 08:40:57;;;;;;;18.13;7.90;;;5.30;99.90;;;;;;6180842;23;20085;-80
2023/04/08 08:43:26;;;;;;;17.45;7.35;;;5.40;99.90;;;;;;6149473;23;20029;-80
2023/04/08 08:45:53;;;;;;;21.77;9.50;;;5.40;99.90;;;;;;6175579;23;20044;-80
2023/04/08 08:48:21;;;;;;;16.85;7.93;;;5.40;99.90;;;;;;6173170;23;20531;-80
2023/04/08 08:50:48;;;;;;;17.95;7.90;;;5.70;99.90;;;;;;6173933;23;20054;-80
2023/04/08 08:53:15;;;;;;;20.50;9.55;;;5.30;99.90;;;;;;6172326;23;20029;-80
2023/04/08 08:55:42;;;;;;;20.55;10.13;;;5.40;99.90;;;;;;6172463;23;20028;-80
2023/04/08 08:58:30;;;;;;;21.25;9.30;;;5.40;99.90;;;;;;6177565;23;20025;-79
2023/04/08 09:00:57;;;;;;;17.45;9.15;;;5.50;99.90;;;;;;6197548;23;20012;-80
2023/04/08 09:03:28;;;;;;;19.65;9.68;;;5.40;99.90;;;;;;6175336;23;20024;-80
2023/04/08 09:05:59;;;;;;;23.15;11.65;;;5.30;99.90;;;;;;6199819;23;20020;-80
2023/04/08 09:08:30;;;;;;;48.88;17.73;;;5.40;99.90;;;;;;6174844;23;20028;-80
2023/04/08 09:11:11;;;;;;;31.88;12.77;;;5.40;99.90;;;;;;6175657;23;20021;-80
2023/04/08 09:13:38;;;;;;;27.60;12.18;;;5.40;99.90;;;;;;6176220;23;20024;-80
2023/04/08 09:16:09;;;;;;;23.77;10.95;;;5.60;99.90;;;;;;6177012;23;20456;-80
2023/04/08 09:18:37;;;;;;;24.80;11.90;;;5.40;99.90;;;;;;6171822;23;20044;-81
2023/04/08 09:21:06;;;;;;;23.70;13.82;;;5.40;99.90;;;;;;6172421;23;20025;-80
2023/04/08 09:23:46;;;;;;;28.05;14.75;;;5.30;99.90;;;;;;6171151;23;20020;-80
2023/04/08 09:26:21;;;;;;;18.58;8.65;;;5.30;99.90;;;;;;6173216;23;20024;-80
2023/04/08 09:29:08;;;;;;;14.48;6.05;;;5.30;99.90;;;;;;6174252;23;20361;-79
2023/04/08 09:31:57;;;;;;;19.40;10.63;;;5.30;99.90;;;;;;6179469;23;20070;-80
2023/04/08 09:34:26;;;;;;;15.38;7.82;;;5.30;99.90;;;;;;6176876;23;20037;-80
2023/04/08 09:36:54;;;;;;;17.00;9.60;;;5.30;99.90;;;;;;6178552;23;20368;-80
2023/04/08 09:39:22;;;;;;;14.63;7.72;;;5.40;99.90;;;;;;6173069;23;20090;-80
2023/04/08 09:41:50;;;;;;;23.92;11.18;;;5.40;99.90;;;;;;6172301;23;20364;-80
2023/04/08 09:44:20;;;;;;;28.88;12.50;;;5.50;99.90;;;;;;6197326;23;20017;-80
2023/04/08 09:47:14;;;;;;;60.05;21.50;;;5.40;99.90;;;;;;6176803;23;20024;-79
2023/04/08 09:49:54;;;;;;;27.42;13.93;;;5.50;99.90;;;;;;6206806;23;20021;-80
2023/04/08 09:52:32;;;;;;;21.55;10.38;;;5.50;99.90;;;;;;6173893;23;20426;-80
2023/04/08 09:55:04;;;;;;;23.48;9.85;;;5.50;99.90;;;;;;6196784;23;20024;-80
2023/04/08 09:57:50;;;;;;;6.43;2.72;;;5.50;99.90;;;;;;6174677;23;20025;-80
2023/04/08 10:00:18;;;;;;;16.00;8.30;;;5.50;99.90;;;;;;6176030;23;20112;-80
2023/04/08 10:02:59;;;;;;;17.40;7.40;;;5.40;99.90;;;;;;6173358;23;20024;-80
2023/04/08 10:05:28;;;;;;;15.07;7.32;;;5.40;99.90;;;;;;6173997;23;20128;-80
2023/04/08 10:07:56;;;;;;;19.75;8.35;;;5.40;99.90;;;;;;6174229;23;20025;-79
2023/04/08 10:10:24;;;;;;;14.50;6.38;;;5.40;99.90;;;;;;6175337;23;20535;-80
2023/04/08 10:12:51;;;;;;;14.23;6.30;;;5.60;99.90;;;;;;6173844;23;20650;-80
2023/04/08 10:15:28;;;;;;;16.17;8.55;;;5.70;99.90;;;;;;6197583;23;20024;-80
2023/04/08 10:18:19;;;;;;;16.40;7.05;;;5.60;99.90;;;;;;6198491;23;20098;-80
2023/04/08 10:20:48;;;;;;;18.20;9.18;;;5.80;99.90;;;;;;6171028;23;20052;-79
2023/04/08 10:23:17;;;;;;;32.95;14.25;;;5.80;99.90;;;;;;6173106;23;20024;-79
2023/04/08 10:25:48;;;;;;;27.88;13.88;;;5.90;99.90;;;;;;6147951;23;20025;-80
2023/04/08 10:28:18;;;;;;;23.30;12.57;;;6.00;99.90;;;;;;6178348;23;20093;-79
2023/04/08 10:30:49;;;;;;;18.33;9.75;;;6.00;99.90;;;;;;6173814;23;20239;-80
2023/04/08 10:33:35;;;;;;;22.33;11.07;;;6.00;99.90;;;;;;6175294;23;20028;-79
2023/04/08 10:36:10;;;;;;;25.38;10.45;;;5.90;99.90;;;;;;6208305;23;20032;-79
2023/04/08 10:38:43;;;;;;;26.33;10.55;;;5.80;99.90;;;;;;6177957;23;20032;-79
2023/04/08 10:41:12;;;;;;;17.02;8.93;;;5.80;99.90;;;;;;6177786;23;20443;-80
2023/04/08 10:43:40;;;;;;;21.33;11.48;;;5.80;99.90;;;;;;6173614;23;20620;-80
2023/04/08 10:46:10;;;;;;;20.10;10.20;;;5.90;99.90;;;;;;6177763;23;20062;-79
2023/04/08 10:48:38;;;;;;;38.20;13.60;;;5.90;99.90;;;;;;6178534;23;20024;-80
2023/04/08 10:51:05;;;;;;;253.68;69.63;;;5.90;99.90;;;;;;6204482;23;20031;-78
2023/04/08 10:53:34;;;;;;;62.00;19.23;;;5.90;99.90;;;;;;6178467;23;20363;-80
2023/04/08 10:56:14;;;;;;;48.08;20.00;;;5.90;99.90;;;;;;6181313;23;20510;-81
2023/04/08 10:58:53;;;;;;;26.98;12.45;;;5.90;99.90;;;;;;6179264;23;20024;-79
2023/04/08 11:01:21;;;;;;;20.17;10.85;;;6.10;99.90;;;;;;6203468;23;20020;-80
2023/04/08 11:03:49;;;;;;;17.10;8.60;;;6.20;99.90;;;;;;6176727;23;20023;-80
2023/04/08 11:06:17;;;;;;;17.38;8.32;;;6.20;99.90;;;;;;6199665;23;20031;-80
2023/04/08 11:08:44;;;;;;;12.55;6.72;;;6.30;99.90;;;;;;6200235;23;20039;-82
2023/04/08 11:11:12;;;;;;;18.63;9.75;;;6.30;99.90;;;;;;6177101;23;20447;-82
2023/04/08 11:13:41;;;;;;;14.95;7.93;;;6.30;99.90;;;;;;6174920;23;20367;-81
2023/04/08 11:16:19;;;;;;;17.30;7.75;;;6.40;99.90;;;;;;6208704;23;20020;-82
2023/04/08 11:18:47;;;;;;;22.15;11.10;;;6.30;99.90;;;;;;6176608;23;20383;-79
2023/04/08 11:21:15;;;;;;;20.73;9.93;;;6.20;99.90;;;;;;6184059;23;20111;-80
2023/04/08 11:23:42;;;;;;;17.40;7.68;;;6.20;99.90;;;;;;6201021;23;20024;-80
2023/04/08 11:26:10;;;;;;;15.85;6.68;;;6.30;99.90;;;;;;6199988;23;20078;-80
2023/04/08 11:28:37;;;;;;;15.18;5.97;;;6.30;99.90;;;;;;6202666;23;20054;-79
2023/04/08 11:31:07;;;;;;;19.10;10.20;;;6.20;99.90;;;;;;6202667;23;20027;-80
2023/04/08 11:33:35;;;;;;;20.10;9.95;;;6.30;99.90;;;;;;6178442;23;20393;-81
2023/04/08 11:36:03;;;;;;;26.15;11.25;;;6.20;99.90;;;;;;6178529;23;20034;-82
2023/04/08 11:38:30;;;;;;;33.25;16.45;;;6.10;99.90;;;;;;6175294;23;20023;-81
2023/04/08 11:40:59;;;;;;;24.67;13.23;;;6.00;99.90;;;;;;6177795;23;20015;-82
2023/04/08 11:43:27;;;;;;;27.95;14.13;;;6.00;99.90;;;;;;6180880;23;20057;-81
2023/04/08 11:45:55;;;;;;;32.28;17.35;;;6.00;99.90;;;;;;6180894;23;20028;-79
2023/04/08 11:48:23;;;;;;;24.30;13.15;;;6.00;99.90;;;;;;6179523;23;20444;-81
2023/04/08 11:51:03;;;;;;;25.38;12.50;;;6.10;99.90;;;;;;6157895;23;20026;-82
2023/04/08 11:53:30;;;;;;;18.13;9.57;;;6.10;99.90;;;;;;6179544;23;20074;-82
2023/04/08 11:55:57;;;;;;;21.05;10.65;;;6.20;99.90;;;;;;6178328;23;20059;-82
2023/04/08 11:58:24;;;;;;;106.93;35.50;;;6.30;99.90;;;;;;6179304;23;20078;-82
2023/04/08 12:00:51;;;;;;;57.92;22.08;;;6.30;99.90;;;;;;6179220;23;20036;-80
2023/04/08 12:03:18;;;;;;;26.20;12.75;;;6.40;99.90;;;;;;6202513;23;20020;-80
2023/04/08 12:05:47;;;;;;;18.70;9.02;;;6.60;99.90;;;;;;6177097;23;20362;-80
2023/04/08 12:08:14;;;;;;;21.42;11.57;;;6.70;99.90;;;;;;6176608;23;20019;-80
2023/04/08 12:10:41;;;;;;;19.98;9.32;;;6.80;99.90;;;;;;6176843;23;20470;-79
2023/04/08 12:13:09;;;;;;;14.57;7.32;;;6.90;99.90;;;;;;6175006;23;20028;-80
2023/04/08 12:15:36;;;;;;;20.30;10.18;;;6.40;99.90;;;;;;6173060;23;20028;-81
2023/04/08 12:18:04;;;;;;;19.00;9.80;;;6.30;99.90;;;;;;6180253;23;20035;-80
2023/04/08 12:20:32;;;;;;;21.92;12.60;;;6.30;99.90;;;;;;6187045;23;20016;-82
2023/04/08 12:22:59;;;;;;;21.25;10.35;;;6.30;99.90;;;;;;6184789;23;20028;-81
2023/04/08 12:25:26;;;;;;;23.98;12.77;;;6.30;99.90;;;;;;6187354;23;20070;-80
2023/04/08 12:27:53;;;;;;;24.17;13.68;;;6.30;99.90;;;;;;6201548;23;20517;-81
2023/04/08 12:30:23;;;;;;;20.58;10.15;;;6.30;99.90;;;;;;6177152;23;20024;-81
2023/04/08 12:32:52;;;;;;;28.08;16.00;;;6.50;99.90;;;;;;6177147;23;20109;-80
2023/04/08 12:35:19;;;;;;;18.67;9.90;;;6.50;99.90;;;;;;6171566;23;20047;-80
2023/04/08 12:37:46;;;;;;;15.48;8.73;;;6.50;99.90;;;;;;6201136;23;20083;-81
2023/04/08 12:40:14;;;;;;;32.17;14.85;;;6.60;99.90;;;;;;6173819;23;20016;-80
2023/04/08 12:42:41;;;;;;;22.85;11.70;;;6.70;99.90;;;;;;6171805;23;20043;-81
2023/04/08 12:45:08;;;;;;;40.80;21.85;;;6.70;99.90;;;;;;6174279;23;20127;-81
2023/04/08 12:47:35;;;;;;;15.82;8.55;;;6.60;99.90;;;;;;6176056;23;20039;-80
2023/04/08 12:50:03;;;;;;;24.50;12.55;;;6.60;99.90;;;;;;6174714;23;20040;-80